Time;durP1;ratioP1;P1;durP2;ratioP2;P2;SDS_P1;SDS_P2;PMS_P1;PMS_P2;Temp;Humidity;BMP_temperature;BMP_pressure;BME280_temperature;BME280_humidity;BME280_pressure;Samples;Min_cycle;Max_cycle;Signal;HPM_P1;HPM_P2
2021/11/11 00:01:05;;;;;;;46.67;27.73;;;4.40;97.80;;;;;;4901290;29;20040;-80
2021/11/11 00:03:31;;;;;;;46.40;28.07;;;4.40;97.90;;;;;;4900353;29;20047;-79
2021/11/11 00:05:57;;;;;;;45.57;27.10;;;4.30;97.70;;;;;;4885315;29;20047;-79
2021/11/11 00:08:24;;;;;;;45.67;26.93;;;4.30;97.70;;;;;;4884800;29;20080;-81
2021/11/11 00:10:49;;;;;;;45.73;27.17;;;4.30;97.70;;;;;;4900391;29;20049;-80
2021/11/11 00:13:19;;;;;;;44.83;28.00;;;4.30;97.70;;;;;;4900527;29;20043;-78
2021/11/11 00:15:46;;;;;;;42.27;24.00;;;4.30;97.80;;;;;;4885580;29;20032;-79
2021/11/11 00:18:12;;;;;;;42.97;25.13;;;4.20;97.70;;;;;;4900281;29;20037;-81
2021/11/11 00:20:39;;;;;;;37.03;23.77;;;4.10;97.50;;;;;;4884929;29;20041;-80
2021/11/11 00:23:05;;;;;;;45.73;24.70;;;4.00;97.50;;;;;;4885663;29;20131;-78
2021/11/11 00:25:30;;;;;;;44.13;26.43;;;4.00;97.60;;;;;;4900681;29;20064;-79
2021/11/11 00:27:58;;;;;;;43.13;25.80;;;4.00;97.90;;;;;;4899918;29;20048;-79
2021/11/11 00:30:24;;;;;;;43.97;24.30;;;4.00;98.10;;;;;;4884266;29;20386;-79
2021/11/11 00:32:51;;;;;;;42.33;23.63;;;4.10;98.00;;;;;;4884164;29;20073;-80
2021/11/11 00:35:23;;;;;;;37.67;22.67;;;4.00;97.80;;;;;;4900342;29;20076;-79
2021/11/11 00:37:50;;;;;;;42.90;24.17;;;3.90;97.80;;;;;;4901185;29;20039;-79
2021/11/11 00:40:16;;;;;;;41.67;23.50;;;4.00;98.10;;;;;;4884784;29;20044;-78
2021/11/11 00:42:43;;;;;;;45.77;23.97;;;4.00;98.10;;;;;;4903260;29;20044;-79
2021/11/11 00:45:09;;;;;;;38.90;22.90;;;4.00;98.30;;;;;;4903569;29;20044;-79
2021/11/11 00:47:35;;;;;;;40.90;21.63;;;4.10;98.20;;;;;;4901997;29;20048;-79
2021/11/11 00:50:02;;;;;;;40.03;23.03;;;3.90;97.90;;;;;;4901502;29;20037;-78
2021/11/11 00:52:29;;;;;;;35.77;22.87;;;3.90;98.00;;;;;;4885188;29;20040;-79
2021/11/11 00:54:55;;;;;;;38.90;22.60;;;3.80;98.10;;;;;;4884967;29;20043;-79
2021/11/11 00:57:20;;;;;;;40.53;23.30;;;3.80;98.30;;;;;;4884154;29;20040;-79
2021/11/11 00:59:46;;;;;;;34.67;20.87;;;3.90;98.40;;;;;;4884089;29;20092;-80
2021/11/11 01:02:12;;;;;;;33.90;20.50;;;3.90;98.40;;;;;;4899892;29;20096;-79
2021/11/11 01:04:38;;;;;;;35.97;22.87;;;3.90;98.30;;;;;;4899954;29;20385;-79
2021/11/11 01:07:06;;;;;;;39.67;22.90;;;3.90;98.50;;;;;;4884381;29;20056;-79
2021/11/11 01:09:32;;;;;;;40.53;23.03;;;3.90;98.50;;;;;;4899860;29;20088;-82
2021/11/11 01:11:58;;;;;;;39.17;22.53;;;3.90;98.60;;;;;;4899618;29;20037;-79
2021/11/11 01:14:24;;;;;;;35.40;22.70;;;4.00;98.80;;;;;;4884687;29;20040;-79
2021/11/11 01:16:52;;;;;;;36.40;22.13;;;4.10;98.80;;;;;;4899771;29;20124;-78
2021/11/11 01:19:18;;;;;;;33.03;21.27;;;4.10;98.90;;;;;;4901033;29;20047;-78
2021/11/11 01:21:43;;;;;;;36.40;21.63;;;4.20;98.80;;;;;;4884037;29;20131;-79
2021/11/11 01:24:09;;;;;;;37.47;21.63;;;4.10;98.50;;;;;;4898547;29;20048;-78
2021/11/11 01:26:35;;;;;;;38.07;21.87;;;4.00;98.50;;;;;;4898358;29;20039;-79
2021/11/11 01:29:00;;;;;;;34.87;21.20;;;4.00;98.60;;;;;;4899705;29;20045;-78
2021/11/11 01:31:26;;;;;;;33.20;20.63;;;4.00;98.70;;;;;;4884571;29;20041;-78
2021/11/11 01:33:52;;;;;;;31.47;20.70;;;4.00;98.80;;;;;;4901712;29;20036;-79
2021/11/11 01:36:18;;;;;;;32.17;20.57;;;4.00;98.70;;;;;;4900624;29;20099;-78
2021/11/11 01:38:44;;;;;;;31.73;20.00;;;3.90;98.70;;;;;;4902303;29;20119;-79
2021/11/11 01:41:09;;;;;;;33.90;20.17;;;3.90;98.70;;;;;;4897982;29;20041;-79
2021/11/11 01:43:35;;;;;;;36.60;20.60;;;3.90;98.70;;;;;;4898307;29;20047;-81
2021/11/11 01:46:01;;;;;;;36.90;20.87;;;4.00;98.90;;;;;;4883116;29;20041;-78
2021/11/11 01:48:27;;;;;;;42.10;21.87;;;4.00;98.90;;;;;;4899366;29;20116;-79
2021/11/11 01:50:54;;;;;;;40.97;20.87;;;4.10;99.00;;;;;;4899440;29;20052;-79
2021/11/11 01:53:21;;;;;;;39.97;20.97;;;4.00;98.80;;;;;;4885336;29;20478;-79
2021/11/11 01:55:49;;;;;;;36.20;20.20;;;4.10;99.10;;;;;;4908017;29;20496;-79
2021/11/11 01:58:16;;;;;;;39.63;20.23;;;4.20;99.20;;;;;;4907549;29;20045;-78
2021/11/11 02:00:45;;;;;;;37.00;20.73;;;4.30;99.10;;;;;;4908165;29;20051;-80
2021/11/11 02:03:14;;;;;;;36.17;18.50;;;4.30;99.00;;;;;;4906966;29;20044;-79
2021/11/11 02:05:40;;;;;;;32.83;18.67;;;4.20;98.60;;;;;;4899691;29;20036;-83
2021/11/11 02:08:06;;;;;;;32.63;19.03;;;3.90;98.40;;;;;;4899599;29;20041;-78
2021/11/11 02:10:33;;;;;;;37.03;18.40;;;3.90;98.60;;;;;;4899155;29;20059;-79
2021/11/11 02:13:00;;;;;;;33.67;19.70;;;3.80;98.50;;;;;;4902745;29;20041;-80
2021/11/11 02:15:26;;;;;;;26.73;17.93;;;3.70;98.80;;;;;;4904408;29;20124;-80
2021/11/11 02:17:52;;;;;;;32.47;17.90;;;3.70;98.70;;;;;;4902850;29;20072;-80
2021/11/11 02:20:30;;;;;;;39.93;19.47;;;3.70;98.80;;;;;;4887217;29;20037;-78
2021/11/11 02:22:58;;;;;;;34.73;17.50;;;3.80;98.90;;;;;;4902661;29;20029;-79
2021/11/11 02:25:25;;;;;;;30.47;17.53;;;3.90;99.10;;;;;;4886993;29;20037;-79
2021/11/11 02:27:53;;;;;;;37.30;18.30;;;3.90;98.90;;;;;;4902334;29;20046;-79
2021/11/11 02:30:21;;;;;;;30.13;17.63;;;3.90;98.90;;;;;;4902265;29;20171;-78
2021/11/11 02:32:48;;;;;;;34.10;16.87;;;3.90;98.80;;;;;;4902324;29;20056;-78
2021/11/11 02:35:16;;;;;;;39.30;16.93;;;3.70;98.50;;;;;;4886460;29;20044;-79
2021/11/11 02:37:42;;;;;;;46.40;17.50;;;3.60;98.50;;;;;;4902779;29;20477;-78
2021/11/11 02:40:11;;;;;;;52.43;18.27;;;3.50;98.40;;;;;;4904071;29;20123;-78
2021/11/11 02:42:39;;;;;;;53.77;17.63;;;3.40;98.70;;;;;;4902208;29;20060;-78
2021/11/11 02:45:07;;;;;;;46.67;16.83;;;3.40;98.80;;;;;;4902149;29;20037;-78
2021/11/11 02:47:34;;;;;;;27.47;14.97;;;3.40;98.70;;;;;;4902649;29;20481;-79
2021/11/11 02:50:00;;;;;;;39.40;15.27;;;3.40;98.70;;;;;;4903491;29;20036;-78
2021/11/11 02:52:25;;;;;;;33.67;15.13;;;3.40;98.70;;;;;;4886589;29;20041;-78
2021/11/11 02:54:52;;;;;;;52.03;15.87;;;3.20;98.40;;;;;;4903608;29;20036;-79
2021/11/11 02:57:21;;;;;;;33.53;15.60;;;3.20;98.70;;;;;;4901813;29;20513;-79
2021/11/11 02:59:47;;;;;;;48.47;15.60;;;3.10;98.80;;;;;;4901534;29;20089;-81
2021/11/11 03:02:28;;;;;;;23.47;15.17;;;3.00;98.60;;;;;;4886334;29;20041;-78
2021/11/11 03:04:55;;;;;;;23.13;14.87;;;3.00;98.70;;;;;;4901561;29;20085;-78
2021/11/11 03:07:21;;;;;;;20.63;14.50;;;3.10;98.80;;;;;;4885879;29;20040;-78
2021/11/11 03:09:47;;;;;;;23.63;14.90;;;3.10;98.80;;;;;;4885366;29;20150;-81
2021/11/11 03:12:14;;;;;;;20.83;14.47;;;3.10;98.60;;;;;;4902012;29;20041;-79
2021/11/11 03:14:40;;;;;;;25.60;15.10;;;3.10;98.60;;;;;;4902910;29;20111;-79
2021/11/11 03:17:06;;;;;;;36.33;17.20;;;3.20;98.60;;;;;;4901744;29;20044;-78
2021/11/11 03:19:33;;;;;;;136.13;20.30;;;3.20;98.70;;;;;;4903059;29;20071;-80
2021/11/11 03:22:01;;;;;;;112.73;19.27;;;3.20;98.50;;;;;;4903100;29;20044;-79
2021/11/11 03:24:27;;;;;;;37.60;16.90;;;3.20;98.50;;;;;;4884759;29;20036;-78
2021/11/11 03:26:52;;;;;;;62.23;17.43;;;3.10;98.50;;;;;;4885728;29;20077;-80
2021/11/11 03:29:18;;;;;;;44.07;17.63;;;3.20;98.60;;;;;;4885610;29;20172;-79
2021/11/11 03:31:44;;;;;;;59.27;18.70;;;3.20;98.60;;;;;;4900558;29;20068;-78
2021/11/11 03:34:10;;;;;;;34.10;16.97;;;3.20;98.60;;;;;;4885527;29;20037;-79
2021/11/11 03:36:36;;;;;;;29.60;17.30;;;3.10;98.60;;;;;;4901004;29;20052;-79
2021/11/11 03:39:03;;;;;;;28.60;16.63;;;3.20;98.70;;;;;;4901881;29;20044;-78
2021/11/11 03:41:28;;;;;;;27.83;16.90;;;3.20;98.70;;;;;;4885284;29;20045;-78
2021/11/11 03:43:54;;;;;;;37.80;16.77;;;3.20;98.70;;;;;;4902121;29;20053;-80
2021/11/11 03:46:19;;;;;;;25.97;15.97;;;3.20;98.60;;;;;;4885122;29;20040;-78
2021/11/11 03:48:45;;;;;;;23.70;17.37;;;3.10;98.50;;;;;;4900515;29;20040;-79
2021/11/11 03:51:11;;;;;;;20.87;16.33;;;3.10;98.60;;;;;;4902364;29;20052;-79
2021/11/11 03:53:37;;;;;;;25.43;16.63;;;3.10;98.70;;;;;;4885467;29;20043;-79
2021/11/11 03:56:03;;;;;;;22.07;16.73;;;3.10;98.80;;;;;;4900683;29;20033;-78
2021/11/11 03:58:29;;;;;;;22.57;16.63;;;3.10;98.90;;;;;;4900322;29;20032;-79
2021/11/11 04:00:55;;;;;;;20.53;16.10;;;3.10;98.80;;;;;;4900750;29;20100;-82
2021/11/11 04:03:20;;;;;;;25.37;16.53;;;3.00;98.70;;;;;;4885035;29;20393;-79
2021/11/11 04:05:46;;;;;;;20.67;16.40;;;3.00;98.70;;;;;;4902104;29;20068;-79
2021/11/11 04:08:12;;;;;;;20.23;15.77;;;3.00;98.70;;;;;;4902104;29;20175;-78
2021/11/11 04:10:37;;;;;;;21.50;16.60;;;2.90;98.60;;;;;;4887264;29;20063;-78
2021/11/11 04:13:05;;;;;;;22.83;16.93;;;2.90;98.60;;;;;;4885496;29;20104;-79
2021/11/11 04:15:32;;;;;;;24.20;16.20;;;3.00;99.00;;;;;;4901146;29;20393;-79
2021/11/11 04:17:58;;;;;;;24.03;17.23;;;2.90;98.80;;;;;;4901530;29;20040;-82
2021/11/11 04:20:24;;;;;;;21.90;16.80;;;3.00;98.90;;;;;;4901225;29;20052;-78
2021/11/11 04:22:49;;;;;;;21.93;16.53;;;3.10;99.00;;;;;;4902195;29;20163;-79
2021/11/11 04:25:21;;;;;;;25.37;17.03;;;3.10;99.00;;;;;;4885645;29;20077;-79
2021/11/11 04:28:13;;;;;;;23.23;16.80;;;3.10;99.10;;;;;;4900959;29;20044;-79
2021/11/11 04:30:34;;;;;;;23.77;16.57;;;3.20;99.10;;;;;;4899928;29;20048;-79
2021/11/11 04:33:02;;;;;;;24.30;16.93;;;3.10;99.10;;;;;;4899702;29;20069;-81
2021/11/11 04:35:28;;;;;;;25.20;18.07;;;3.10;99.00;;;;;;4899678;29;20496;-79
2021/11/11 04:43:51;;;;;;;28.10;16.93;;;3.30;99.40;;;;;;4899964;29;20051;-80
2021/11/11 04:49:31;;;;;;;26.60;16.53;;;3.40;99.30;;;;;;4901249;29;20056;-82
2021/11/11 04:52:14;;;;;;;25.73;15.37;;;3.40;99.30;;;;;;4900328;29;20509;-80
2021/11/11 05:05:47;;;;;;;22.40;15.30;;;3.50;99.00;;;;;;4901038;29;20040;-79
2021/11/11 05:08:13;;;;;;;21.63;15.23;;;3.40;98.80;;;;;;4885715;29;20112;-79
2021/11/11 05:10:39;;;;;;;22.60;14.90;;;3.30;98.70;;;;;;4885013;29;20409;-80
2021/11/11 05:13:05;;;;;;;20.50;14.73;;;3.40;98.80;;;;;;4885611;29;20045;-82
2021/11/11 05:15:31;;;;;;;20.43;14.90;;;3.30;98.70;;;;;;4900738;29;20033;-79
2021/11/11 05:17:57;;;;;;;21.20;16.57;;;3.40;98.80;;;;;;4885626;29;20044;-77
2021/11/11 05:20:22;;;;;;;22.57;15.67;;;3.30;98.80;;;;;;4884579;29;20096;-78
2021/11/11 05:22:49;;;;;;;19.87;15.17;;;3.40;98.90;;;;;;4899383;29;20048;-79
2021/11/11 05:25:16;;;;;;;21.67;15.57;;;3.40;98.90;;;;;;4899002;29;20029;-79
2021/11/11 05:27:44;;;;;;;25.00;15.60;;;3.40;98.80;;;;;;4899421;29;20041;-78
2021/11/11 05:30:12;;;;;;;21.87;15.57;;;3.40;98.80;;;;;;4884197;29;20048;-78
2021/11/11 05:32:38;;;;;;;21.77;15.07;;;3.50;98.80;;;;;;4899900;29;20037;-78
2021/11/11 05:35:06;;;;;;;23.03;16.10;;;3.50;98.70;;;;;;4898845;29;20045;-79
2021/11/11 05:37:32;;;;;;;32.13;17.70;;;3.40;98.60;;;;;;4900139;29;20056;-80
2021/11/11 05:39:58;;;;;;;29.53;16.50;;;3.30;98.20;;;;;;4900080;29;20466;-80
2021/11/11 05:42:24;;;;;;;24.27;16.10;;;3.10;98.00;;;;;;4900975;29;20409;-81
2021/11/11 05:44:50;;;;;;;30.03;17.10;;;3.00;98.40;;;;;;4899880;29;20041;-79
2021/11/11 05:47:16;;;;;;;22.50;15.80;;;3.00;98.60;;;;;;4900493;29;20397;-78
2021/11/11 05:49:42;;;;;;;25.00;15.60;;;3.10;98.80;;;;;;4904338;29;20044;-80
2021/11/11 05:52:08;;;;;;;27.13;16.53;;;3.20;98.90;;;;;;4903816;29;20040;-81
2021/11/11 05:54:38;;;;;;;38.83;17.73;;;3.30;98.80;;;;;;4904251;29;20052;-79
2021/11/11 05:57:06;;;;;;;23.33;16.23;;;3.30;98.70;;;;;;4904089;29;20133;-79
2021/11/11 05:59:32;;;;;;;24.37;16.27;;;3.30;98.70;;;;;;4904030;29;20032;-80
2021/11/11 06:01:58;;;;;;;22.40;16.07;;;3.40;98.80;;;;;;4885832;29;20037;-79
2021/11/11 06:04:24;;;;;;;24.73;16.17;;;3.50;98.80;;;;;;4902796;29;20495;-81
2021/11/11 06:06:50;;;;;;;25.20;16.83;;;3.50;98.70;;;;;;4886308;29;20045;-80
2021/11/11 06:09:20;;;;;;;28.23;18.97;;;3.60;98.60;;;;;;4902832;29;20127;-79
2021/11/11 06:11:46;;;;;;;33.47;19.30;;;3.60;98.70;;;;;;4884935;29;20139;-80
2021/11/11 06:14:12;;;;;;;29.30;18.70;;;3.60;98.60;;;;;;4885222;29;20087;-82
2021/11/11 06:16:37;;;;;;;28.60;17.43;;;3.70;98.70;;;;;;4885025;29;20037;-81
2021/11/11 06:19:03;;;;;;;25.43;16.97;;;3.70;98.60;;;;;;4885081;29;20430;-79
2021/11/11 06:21:29;;;;;;;26.77;18.07;;;3.70;98.40;;;;;;4900279;29;20044;-78
2021/11/11 06:23:54;;;;;;;32.77;19.37;;;3.70;98.50;;;;;;4901279;29;20037;-79
2021/11/11 06:26:22;;;;;;;31.57;18.00;;;3.60;98.10;;;;;;4885495;29;20063;-80
2021/11/11 06:28:48;;;;;;;31.23;19.37;;;3.50;98.30;;;;;;4896497;29;20045;-81
2021/11/11 06:31:14;;;;;;;28.33;17.37;;;3.40;98.20;;;;;;4899983;29;20060;-80
2021/11/11 06:33:40;;;;;;;29.60;18.53;;;3.50;98.50;;;;;;4883749;29;20052;-78
2021/11/11 06:36:06;;;;;;;24.97;17.30;;;3.50;98.60;;;;;;4884401;29;20052;-80
2021/11/11 06:38:32;;;;;;;27.83;17.77;;;3.70;98.80;;;;;;4883734;29;20045;-79
2021/11/11 06:40:57;;;;;;;27.63;17.93;;;3.80;98.80;;;;;;4883620;29;20043;-80
2021/11/11 06:43:23;;;;;;;30.23;18.67;;;3.90;98.70;;;;;;4900089;29;20064;-79
2021/11/11 06:45:49;;;;;;;32.03;19.33;;;4.00;98.70;;;;;;4884009;29;20060;-80
2021/11/11 06:48:15;;;;;;;28.73;17.90;;;4.10;98.40;;;;;;4900643;29;20393;-80
2021/11/11 06:50:43;;;;;;;31.93;19.13;;;4.10;98.40;;;;;;4900813;29;20065;-79
2021/11/11 06:53:10;;;;;;;30.70;19.40;;;4.20;98.30;;;;;;4899304;29;20060;-79
2021/11/11 06:55:36;;;;;;;32.43;19.50;;;4.10;97.70;;;;;;4883802;29;20033;-80
2021/11/11 06:58:03;;;;;;;30.73;19.50;;;4.10;97.70;;;;;;4899506;29;20055;-79
2021/11/11 07:00:29;;;;;;;33.37;19.83;;;4.00;97.10;;;;;;4899240;29;20492;-79
2021/11/11 07:02:55;;;;;;;31.43;19.50;;;3.90;97.20;;;;;;4898869;29;20037;-80
2021/11/11 07:05:24;;;;;;;29.77;19.57;;;4.10;98.40;;;;;;4883957;29;20044;-81
2021/11/11 07:07:49;;;;;;;33.67;18.90;;;4.50;99.10;;;;;;4899011;29;20577;-80
2021/11/11 07:10:15;;;;;;;34.17;19.60;;;4.90;98.80;;;;;;4899420;29;20136;-79
2021/11/11 07:12:44;;;;;;;30.20;18.93;;;5.10;98.00;;;;;;4899104;29;20489;-78
2021/11/11 07:15:13;;;;;;;27.30;17.23;;;5.30;97.90;;;;;;4899259;29;20135;-81
2021/11/11 07:17:39;;;;;;;26.37;17.43;;;5.60;96.90;;;;;;4900329;29;20169;-79
2021/11/11 07:20:08;;;;;;;28.00;17.47;;;5.80;96.60;;;;;;4898891;29;20040;-80
2021/11/11 07:22:34;;;;;;;31.60;18.33;;;5.90;96.10;;;;;;4898922;29;20051;-80
2021/11/11 07:25:00;;;;;;;29.33;18.97;;;6.00;95.10;;;;;;4899760;29;20036;-80
2021/11/11 07:27:25;;;;;;;30.97;19.63;;;5.90;94.80;;;;;;4899391;29;20116;-81
2021/11/11 07:29:51;;;;;;;33.47;21.27;;;5.70;94.40;;;;;;4899060;29;20045;-81
2021/11/11 07:32:17;;;;;;;32.17;20.40;;;5.70;95.20;;;;;;4900666;29;20040;-79
2021/11/11 07:34:43;;;;;;;32.40;19.87;;;5.60;94.00;;;;;;4883685;29;20504;-80
2021/11/11 07:37:09;;;;;;;37.97;23.47;;;5.40;93.90;;;;;;4883140;29;20450;-80
2021/11/11 07:39:35;;;;;;;30.20;20.53;;;5.30;94.80;;;;;;4882886;29;20040;-80
2021/11/11 07:42:01;;;;;;;37.80;23.47;;;5.50;94.70;;;;;;4900118;29;20048;-80
2021/11/11 07:44:27;;;;;;;34.43;23.37;;;5.50;94.40;;;;;;4882939;29;20037;-81
2021/11/11 07:46:53;;;;;;;39.43;24.00;;;5.70;95.20;;;;;;4882729;29;20044;-80
2021/11/11 07:49:19;;;;;;;35.63;23.53;;;6.10;94.30;;;;;;4882648;29;20040;-79
2021/11/11 07:51:45;;;;;;;37.20;24.67;;;6.20;93.00;;;;;;4898255;29;20041;-78
2021/11/11 07:54:11;;;;;;;34.23;23.23;;;6.40;93.30;;;;;;4882584;29;20041;-78
2021/11/11 07:56:38;;;;;;;35.10;22.80;;;6.70;92.80;;;;;;4882544;29;20044;-78
2021/11/11 07:59:05;;;;;;;35.50;24.50;;;7.00;92.00;;;;;;4898215;29;20135;-78
2021/11/11 08:01:31;;;;;;;31.33;20.80;;;7.30;91.40;;;;;;4898750;29;20032;-79
2021/11/11 08:03:57;;;;;;;35.50;23.23;;;7.60;90.60;;;;;;4898680;29;20056;-79
2021/11/11 08:06:22;;;;;;;32.97;22.27;;;7.80;88.70;;;;;;4898891;29;20029;-79
2021/11/11 08:08:48;;;;;;;32.43;20.47;;;8.20;88.10;;;;;;4898000;29;20032;-79
2021/11/11 08:11:14;;;;;;;31.60;20.70;;;8.70;84.90;;;;;;4897039;29;20052;-79
2021/11/11 08:13:40;;;;;;;32.30;20.33;;;9.00;83.50;;;;;;4899225;29;20045;-79
2021/11/11 08:16:06;;;;;;;27.40;18.87;;;9.30;81.10;;;;;;4882526;29;20132;-79
2021/11/11 08:18:31;;;;;;;31.93;20.30;;;9.30;79.40;;;;;;4882692;29;20047;-79
2021/11/11 08:20:57;;;;;;;28.07;18.27;;;9.30;78.60;;;;;;4897713;29;20040;-78
2021/11/11 08:23:23;;;;;;;28.40;19.00;;;9.50;79.90;;;;;;4897629;29;20092;-79
2021/11/11 08:25:50;;;;;;;25.17;18.80;;;9.70;77.60;;;;;;4897748;29;20047;-78
2021/11/11 08:28:18;;;;;;;28.23;19.30;;;9.70;76.90;;;;;;4897190;29;20040;-78
2021/11/11 08:30:47;;;;;;;28.30;18.33;;;9.70;75.30;;;;;;4898609;29;20041;-78
2021/11/11 08:33:14;;;;;;;31.77;20.50;;;9.70;74.70;;;;;;4882048;29;20478;-79
2021/11/11 08:35:42;;;;;;;36.17;22.10;;;9.40;74.70;;;;;;4882230;29;20037;-79
2021/11/11 08:38:08;;;;;;;36.77;21.63;;;9.10;74.60;;;;;;4897876;29;20048;-80
2021/11/11 08:40:34;;;;;;;33.50;21.80;;;8.90;77.00;;;;;;4898039;29;20359;-79
2021/11/11 08:43:00;;;;;;;34.77;20.67;;;9.00;75.90;;;;;;4882340;29;20052;-80
2021/11/11 08:45:28;;;;;;;33.43;22.83;;;9.20;77.30;;;;;;4897496;29;20045;-79
2021/11/11 08:47:55;;;;;;;31.57;21.63;;;9.30;77.60;;;;;;4898725;29;20133;-81
2021/11/11 08:50:23;;;;;;;37.83;24.23;;;9.10;77.20;;;;;;4899260;29;20033;-80
2021/11/11 08:52:54;;;;;;;36.63;22.83;;;8.70;78.40;;;;;;4898015;29;20071;-80
2021/11/11 08:55:24;;;;;;;35.53;21.47;;;8.50;78.90;;;;;;4900590;29;20028;-81
2021/11/11 08:57:51;;;;;;;38.70;23.40;;;8.10;79.50;;;;;;4885110;29;20044;-80
2021/11/11 09:00:20;;;;;;;35.43;22.83;;;8.00;83.00;;;;;;4897726;29;20032;-81
2021/11/11 09:02:49;;;;;;;36.10;22.23;;;7.90;83.10;;;;;;4898669;29;20470;-82
2021/11/11 09:05:16;;;;;;;37.70;22.43;;;7.80;84.10;;;;;;4899537;29;20033;-82
2021/11/11 09:07:43;;;;;;;35.43;23.17;;;7.80;85.40;;;;;;4909278;29;20105;-81
2021/11/11 09:10:14;;;;;;;45.87;24.30;;;7.60;85.60;;;;;;4892805;29;20115;-81
2021/11/11 09:12:39;;;;;;;41.23;25.17;;;7.60;86.80;;;;;;4908393;29;20115;-81
2021/11/11 09:15:12;;;;;;;38.27;22.67;;;7.70;87.70;;;;;;4904471;29;20075;-80
2021/11/11 09:17:40;;;;;;;42.53;26.02;;;7.60;87.50;;;;;;4897085;29;20045;-80
2021/11/11 09:20:11;;;;;;;50.30;28.20;;;7.40;88.50;;;;;;4897269;29;20047;-80
2021/11/11 09:22:37;;;;;;;44.53;26.03;;;7.50;90.50;;;;;;4901172;29;20041;-80
2021/11/11 09:25:05;;;;;;;39.97;25.50;;;7.50;90.10;;;;;;4886714;29;20045;-80
2021/11/11 09:27:32;;;;;;;42.37;26.20;;;7.40;90.20;;;;;;4907352;29;20046;-81
2021/11/11 09:29:58;;;;;;;40.27;24.07;;;7.50;91.40;;;;;;4885907;29;20049;-81
2021/11/11 09:32:24;;;;;;;41.47;23.27;;;7.60;91.10;;;;;;4885710;29;20103;-79
2021/11/11 09:34:49;;;;;;;35.53;22.70;;;7.80;91.40;;;;;;4886321;29;20037;-81
2021/11/11 09:37:15;;;;;;;36.47;23.63;;;8.10;91.40;;;;;;4886811;29;20044;-78
2021/11/11 09:39:41;;;;;;;38.80;24.03;;;8.30;91.00;;;;;;4901573;29;20405;-78
2021/11/11 09:42:07;;;;;;;41.87;22.70;;;8.40;90.20;;;;;;4885190;29;20043;-78
2021/11/11 09:44:33;;;;;;;36.80;22.67;;;8.40;89.70;;;;;;4901498;29;20096;-79
2021/11/11 09:46:59;;;;;;;37.57;23.37;;;8.50;90.00;;;;;;4900360;29;20033;-79
2021/11/11 09:49:27;;;;;;;36.07;23.10;;;8.70;90.00;;;;;;4900790;29;20048;-79
2021/11/11 09:51:54;;;;;;;37.33;22.67;;;8.80;90.00;;;;;;4900789;29;20041;-78
2021/11/11 09:59:40;;;;;;;35.60;22.83;;;9.20;89.40;;;;;;4902066;29;20075;-79
2021/11/11 10:02:08;;;;;;;38.50;24.20;;;9.20;88.90;;;;;;4900804;29;20036;-77
2021/11/11 10:04:34;;;;;;;50.13;23.10;;;9.30;89.00;;;;;;4900460;29;20044;-79
2021/11/11 10:07:01;;;;;;;41.40;23.87;;;9.40;89.20;;;;;;4885658;29;20477;-79
2021/11/11 10:09:26;;;;;;;38.87;22.43;;;9.50;88.10;;;;;;4902206;29;20056;-79
2021/11/11 10:11:58;;;;;;;35.80;21.77;;;9.40;87.80;;;;;;4907893;29;20049;-80
2021/11/11 10:14:32;;;;;;;34.53;22.63;;;9.40;88.50;;;;;;4910146;29;20037;-78
2021/11/11 10:17:04;;;;;;;35.27;21.80;;;9.50;89.10;;;;;;4903298;29;20040;-78
2021/11/11 10:19:33;;;;;;;37.10;23.15;;;9.60;89.50;;;;;;4900718;29;20043;-79
2021/11/11 10:25:02;;;;;;;38.53;24.70;;;9.90;88.30;;;;;;4895832;29;20041;-80
2021/11/11 10:27:36;;;;;;;42.07;25.40;;;10.10;88.50;;;;;;4900240;29;20029;-80
2021/11/11 10:30:23;;;;;;;35.23;23.63;;;10.20;87.40;;;;;;4900560;29;20037;-80
2021/11/11 10:32:50;;;;;;;37.63;23.53;;;10.20;87.30;;;;;;4908962;29;20048;-78
2021/11/11 10:35:19;;;;;;;37.90;23.37;;;10.30;87.10;;;;;;4909525;29;20093;-79
2021/11/11 10:38:03;;;;;;;38.90;24.43;;;10.40;87.10;;;;;;4910062;29;20032;-80
2021/11/11 10:40:32;;;;;;;38.80;24.23;;;10.60;86.60;;;;;;4914133;29;20035;-79
2021/11/11 10:43:00;;;;;;;38.27;24.20;;;10.60;85.30;;;;;;4907772;29;20104;-80
2021/11/11 10:45:33;;;;;;;39.83;25.63;;;10.50;84.90;;;;;;4898419;29;20051;-79
2021/11/11 10:48:02;;;;;;;36.33;24.25;;;10.50;85.90;;;;;;4909556;29;20056;-79
2021/11/11 10:50:40;;;;;;;36.67;24.10;;;10.80;86.20;;;;;;4907742;29;20504;-79
2021/11/11 10:53:08;;;;;;;38.50;23.37;;;10.90;85.80;;;;;;4906397;29;20513;-79
2021/11/11 10:55:48;;;;;;;41.67;24.20;;;11.00;85.10;;;;;;4902536;29;20043;-80
2021/11/11 10:58:23;;;;;;;34.77;23.10;;;11.00;84.30;;;;;;4902728;29;20044;-79
2021/11/11 11:00:54;;;;;;;40.40;26.07;;;11.00;84.70;;;;;;4900897;29;20131;-79
2021/11/11 11:03:23;;;;;;;41.03;26.63;;;11.00;84.90;;;;;;4900163;29;20450;-78
2021/11/11 11:05:57;;;;;;;44.80;28.63;;;11.20;85.30;;;;;;4900379;29;20044;-82
2021/11/11 11:08:29;;;;;;;45.07;29.43;;;11.40;85.20;;;;;;4899184;29;20068;-81
2021/11/11 11:11:03;;;;;;;53.30;32.10;;;11.70;84.80;;;;;;4900078;29;20045;-81
2021/11/11 11:13:40;;;;;;;44.77;30.07;;;12.00;84.50;;;;;;4900677;29;20036;-80
2021/11/11 11:16:09;;;;;;;46.53;26.90;;;12.30;83.60;;;;;;4900624;29;20037;-80
2021/11/11 11:18:45;;;;;;;41.53;26.10;;;12.30;80.80;;;;;;4900682;29;20036;-80
2021/11/11 11:21:14;;;;;;;38.53;25.33;;;12.20;81.00;;;;;;4898838;29;20037;-81
2021/11/11 11:23:45;;;;;;;38.67;26.10;;;12.30;81.30;;;;;;4898913;29;20393;-81
2021/11/11 11:26:13;;;;;;;38.83;24.03;;;12.50;81.50;;;;;;4899467;29;20063;-84
2021/11/11 11:28:50;;;;;;;40.10;25.30;;;12.60;80.40;;;;;;4900688;29;20469;-81
2021/11/11 11:31:30;;;;;;;39.80;24.08;;;12.70;79.90;;;;;;4899516;29;20032;-82
2021/11/11 11:33:56;;;;;;;36.42;23.00;;;12.60;78.30;;;;;;4900349;29;20386;-79
2021/11/11 11:36:58;;;;;;;34.90;22.10;;;12.50;79.50;;;;;;4883338;29;20047;-81
2021/11/11 11:39:34;;;;;;;37.95;22.88;;;12.60;80.30;;;;;;4892187;29;20060;-80
2021/11/11 11:42:08;;;;;;;34.85;22.27;;;12.80;79.40;;;;;;4900218;29;20044;-80
2021/11/11 11:44:47;;;;;;;35.83;22.77;;;12.80;78.30;;;;;;4911893;29;20036;-81
2021/11/11 11:47:29;;;;;;;32.97;21.77;;;12.80;78.80;;;;;;4911339;29;20032;-81
2021/11/11 11:50:00;;;;;;;32.88;20.95;;;13.00;78.40;;;;;;4899604;29;20496;-81
2021/11/11 11:52:29;;;;;;;32.25;24.52;;;13.00;77.20;;;;;;4899132;29;20477;-80
2021/11/11 11:55:13;;;;;;;30.88;20.05;;;13.10;77.80;;;;;;4898651;29;20501;-82
2021/11/11 11:57:53;;;;;;;36.05;22.33;;;13.20;77.30;;;;;;4898175;29;20101;-82
2021/11/11 12:14:04;;;;;;;36.40;24.58;;;13.30;76.10;;;;;;4899936;29;20119;-81
2021/11/11 12:39:42;;;;;;;38.58;24.23;;;13.10;76.80;;;;;;4904623;29;20059;-81
2021/11/11 12:42:14;;;;;;;37.28;24.65;;;13.10;76.80;;;;;;4903376;29;20072;-82
2021/11/11 12:45:05;;;;;;;39.58;25.52;;;13.10;76.90;;;;;;4900805;29;20059;-80
2021/11/11 12:47:31;;;;;;;42.30;25.85;;;13.10;76.80;;;;;;4898305;29;20050;-82
2021/11/11 12:50:32;;;;;;;38.13;25.65;;;13.10;76.50;;;;;;4906465;29;20108;-81
2021/11/11 12:53:13;;;;;;;35.70;23.58;;;13.00;76.90;;;;;;4906157;29;20032;-83
2021/11/11 12:55:45;;;;;;;39.28;24.27;;;13.10;77.10;;;;;;4903860;29;20482;-80
2021/11/11 12:58:18;;;;;;;40.10;24.27;;;13.10;77.00;;;;;;4903170;29;20049;-81
2021/11/11 13:00:46;;;;;;;;;;;13.10;76.80;;;;;;4903560;29;20044;-78
2021/11/11 13:03:12;;;;;;;36.83;23.70;;;13.10;77.00;;;;;;4901862;29;19913;-79
2021/11/11 13:05:54;;;;;;;38.15;23.13;;;13.10;77.30;;;;;;4884107;29;20053;-81
2021/11/11 13:08:40;;;;;;;35.30;23.80;;;13.20;77.50;;;;;;4902942;29;20044;-81
2021/11/11 13:11:06;;;;;;;41.42;25.55;;;13.20;77.10;;;;;;4899433;29;20185;-81
2021/11/11 13:13:32;;;;;;;35.45;24.20;;;13.30;77.30;;;;;;4899910;29;20109;-80
2021/11/11 13:16:12;;;;;;;33.97;23.98;;;13.20;77.10;;;;;;4883915;29;20481;-80
2021/11/11 13:18:53;;;;;;;35.38;23.88;;;13.10;76.80;;;;;;4902233;29;20037;-81
2021/11/11 13:21:29;;;;;;;38.65;24.88;;;13.10;77.10;;;;;;4900312;29;20032;-79
2021/11/11 13:24:17;;;;;;;39.38;25.38;;;13.00;76.90;;;;;;4900754;29;20043;-79
2021/11/11 15:47:15;;;;;;;45.00;28.93;;;11.10;89.40;;;;;;4899310;29;20120;-79
2021/11/11 16:02:40;;;;;;;51.70;32.67;;;10.80;90.20;;;;;;4900893;29;20040;-80
2021/11/11 16:26:23;;;;;;;53.47;32.00;;;11.10;90.20;;;;;;4898687;29;20084;-79
2021/11/11 16:28:51;;;;;;;53.53;34.17;;;11.10;90.20;;;;;;4882779;29;20040;-79
2021/11/11 16:31:21;;;;;;;52.67;33.43;;;11.00;90.10;;;;;;4897483;29;20052;-79
2021/11/11 16:33:48;;;;;;;51.70;32.60;;;11.00;90.20;;;;;;4899358;29;20386;-79
2021/11/11 16:36:14;;;;;;;50.93;32.07;;;11.00;90.20;;;;;;4897691;29;20139;-79
2021/11/11 16:38:40;;;;;;;50.93;31.93;;;10.90;90.20;;;;;;4901853;29;20041;-79
2021/11/11 16:41:07;;;;;;;51.20;31.93;;;10.80;90.20;;;;;;4899337;29;20037;-80